KHSV/HSV METAR and TAF weather

Enter ICAO airport designator
Station Type Date Time Source
KHSV METAR 2020/04/03 21:53 UTC NOAA

KHSV 032153Z 26005KT 10SM FEW150 BKN250 23/06 A2996 RMK AO2 SLP141 T02330061


Station Type Date Time Source
KHSV Decoded METAR 2020/04/03 21:53 UTC NOAA

HUNTSVILLE INTERNATIONAL JONES FIELD, AL, United States (KHSV) 34-39N 086-47W 191M
Apr 03, 2020 - 05:53 PM EDT / 2020.04.03 2153 UTC
Wind: from the W (260 degrees) at 6 MPH (5 KT):0
Visibility: 10 mile(s):0
Sky conditions: mostly cloudy
Temperature: 73.9 F (23.3 C)
Dew Point: 43.0 F (6.1 C)
Relative Humidity: 32%
Pressure (altimeter): 29.96 in. Hg (1014 hPa)
ob: KHSV 032153Z 26005KT 10SM FEW150 BKN250 23/06 A2996 RMK AO2 SLP141 T02330061
cycle: 22

Station Type Date Time Source
KHSV TAF 2020/04/03 18:36 UTC NOAA

TAF KHSV 031733Z 0318/0418 VRB04KT P6SM SCT150 SCT250
FM041500 05006KT P6SM SCT250

Example: see airport list